sensor_id;sensor_type;location;lat;lon;timestamp;P1;durP1;ratioP1;P2;durP2;ratioP2
70270;SDS011;57680;54.292;18.598;2023-03-05T00:00:11;7.22;;;1.88;;
70270;SDS011;57680;54.292;18.598;2023-03-05T00:02:38;6.18;;;1.73;;
70270;SDS011;57680;54.292;18.598;2023-03-05T00:05:05;10.35;;;2.15;;
70270;SDS011;57680;54.292;18.598;2023-03-05T00:07:31;6.00;;;2.05;;
70270;SDS011;57680;54.292;18.598;2023-03-05T00:10:00;6.60;;;1.97;;
70270;SDS011;57680;54.292;18.598;2023-03-05T00:12:26;4.05;;;1.38;;
70270;SDS011;57680;54.292;18.598;2023-03-05T00:14:52;6.27;;;1.60;;
70270;SDS011;57680;54.292;18.598;2023-03-05T00:17:18;6.00;;;1.30;;
70270;SDS011;57680;54.292;18.598;2023-03-05T00:19:44;8.73;;;2.10;;
70270;SDS011;57680;54.292;18.598;2023-03-05T00:22:09;7.83;;;2.17;;
70270;SDS011;57680;54.292;18.598;2023-03-05T00:24:35;6.22;;;1.70;;
70270;SDS011;57680;54.292;18.598;2023-03-05T00:27:00;8.80;;;1.93;;
70270;SDS011;57680;54.292;18.598;2023-03-05T00:29:25;4.73;;;1.47;;
70270;SDS011;57680;54.292;18.598;2023-03-05T00:31:51;5.15;;;1.90;;
70270;SDS011;57680;54.292;18.598;2023-03-05T00:34:17;5.87;;;1.70;;
70270;SDS011;57680;54.292;18.598;2023-03-05T00:36:45;3.78;;;0.90;;
70270;SDS011;57680;54.292;18.598;2023-03-05T00:39:12;4.43;;;1.58;;
70270;SDS011;57680;54.292;18.598;2023-03-05T00:41:38;3.57;;;1.37;;
70270;SDS011;57680;54.292;18.598;2023-03-05T00:44:04;8.90;;;1.50;;
70270;SDS011;57680;54.292;18.598;2023-03-05T00:46:30;5.40;;;1.55;;
70270;SDS011;57680;54.292;18.598;2023-03-05T00:48:55;5.03;;;1.70;;
70270;SDS011;57680;54.292;18.598;2023-03-05T00:51:21;6.03;;;1.23;;
70270;SDS011;57680;54.292;18.598;2023-03-05T00:53:47;6.93;;;1.60;;
70270;SDS011;57680;54.292;18.598;2023-03-05T00:56:13;3.80;;;1.00;;
70270;SDS011;57680;54.292;18.598;2023-03-05T00:58:38;7.80;;;1.50;;
70270;SDS011;57680;54.292;18.598;2023-03-05T01:01:04;5.70;;;1.20;;
70270;SDS011;57680;54.292;18.598;2023-03-05T01:03:30;6.72;;;1.45;;
70270;SDS011;57680;54.292;18.598;2023-03-05T01:05:57;6.20;;;1.60;;
70270;SDS011;57680;54.292;18.598;2023-03-05T01:08:23;5.27;;;1.87;;
70270;SDS011;57680;54.292;18.598;2023-03-05T01:10:49;4.18;;;1.48;;
70270;SDS011;57680;54.292;18.598;2023-03-05T01:13:15;5.90;;;1.75;;
70270;SDS011;57680;54.292;18.598;2023-03-05T01:15:41;3.00;;;1.10;;
70270;SDS011;57680;54.292;18.598;2023-03-05T01:18:07;7.55;;;1.60;;
70270;SDS011;57680;54.292;18.598;2023-03-05T01:20:32;5.80;;;1.93;;
70270;SDS011;57680;54.292;18.598;2023-03-05T01:22:58;4.53;;;1.42;;
70270;SDS011;57680;54.292;18.598;2023-03-05T01:25:24;4.60;;;1.57;;
70270;SDS011;57680;54.292;18.598;2023-03-05T01:27:49;4.70;;;1.20;;
70270;SDS011;57680;54.292;18.598;2023-03-05T01:30:15;5.40;;;1.60;;
70270;SDS011;57680;54.292;18.598;2023-03-05T01:32:40;5.33;;;1.83;;
70270;SDS011;57680;54.292;18.598;2023-03-05T01:35:06;5.78;;;1.70;;
70270;SDS011;57680;54.292;18.598;2023-03-05T01:37:32;4.63;;;1.20;;
70270;SDS011;57680;54.292;18.598;2023-03-05T01:39:58;6.60;;;1.20;;
70270;SDS011;57680;54.292;18.598;2023-03-05T01:42:24;5.80;;;1.60;;
70270;SDS011;57680;54.292;18.598;2023-03-05T01:45:04;5.75;;;1.40;;
70270;SDS011;57680;54.292;18.598;2023-03-05T01:47:34;4.53;;;1.60;;
70270;SDS011;57680;54.292;18.598;2023-03-05T01:50:00;7.32;;;1.60;;
70270;SDS011;57680;54.292;18.598;2023-03-05T01:52:25;7.23;;;1.37;;
70270;SDS011;57680;54.292;18.598;2023-03-05T01:54:56;8.10;;;1.63;;
70270;SDS011;57680;54.292;18.598;2023-03-05T02:00:34;5.10;;;1.27;;
70270;SDS011;57680;54.292;18.598;2023-03-05T02:03:04;7.18;;;1.48;;
70270;SDS011;57680;54.292;18.598;2023-03-05T02:05:33;5.00;;;1.33;;
70270;SDS011;57680;54.292;18.598;2023-03-05T02:08:01;4.22;;;1.17;;
70270;SDS011;57680;54.292;18.598;2023-03-05T02:10:30;5.88;;;1.60;;
70270;SDS011;57680;54.292;18.598;2023-03-05T02:12:59;7.25;;;1.27;;
70270;SDS011;57680;54.292;18.598;2023-03-05T02:15:27;10.95;;;2.22;;
70270;SDS011;57680;54.292;18.598;2023-03-05T02:17:53;5.37;;;1.20;;
70270;SDS011;57680;54.292;18.598;2023-03-05T02:20:20;4.60;;;1.60;;
70270;SDS011;57680;54.292;18.598;2023-03-05T02:22:47;5.38;;;1.45;;
70270;SDS011;57680;54.292;18.598;2023-03-05T02:25:17;5.67;;;1.70;;
70270;SDS011;57680;54.292;18.598;2023-03-05T02:30:34;6.93;;;1.25;;
70270;SDS011;57680;54.292;18.598;2023-03-05T02:32:59;6.20;;;1.73;;
70270;SDS011;57680;54.292;18.598;2023-03-05T02:35:25;6.70;;;1.38;;
70270;SDS011;57680;54.292;18.598;2023-03-05T02:37:50;5.47;;;1.27;;
70270;SDS011;57680;54.292;18.598;2023-03-05T02:40:16;3.80;;;1.27;;
70270;SDS011;57680;54.292;18.598;2023-03-05T02:42:42;4.45;;;1.10;;
70270;SDS011;57680;54.292;18.598;2023-03-05T02:45:08;4.20;;;1.30;;
70270;SDS011;57680;54.292;18.598;2023-03-05T02:47:35;4.97;;;1.13;;
70270;SDS011;57680;54.292;18.598;2023-03-05T02:50:01;5.40;;;1.48;;
70270;SDS011;57680;54.292;18.598;2023-03-05T02:52:27;5.50;;;1.10;;
70270;SDS011;57680;54.292;18.598;2023-03-05T02:54:53;5.80;;;1.00;;
70270;SDS011;57680;54.292;18.598;2023-03-05T02:57:19;4.50;;;1.17;;
70270;SDS011;57680;54.292;18.598;2023-03-05T02:59:44;2.80;;;0.90;;
70270;SDS011;57680;54.292;18.598;2023-03-05T03:02:11;3.47;;;0.85;;
70270;SDS011;57680;54.292;18.598;2023-03-05T03:04:37;4.10;;;1.10;;
70270;SDS011;57680;54.292;18.598;2023-03-05T03:07:02;3.60;;;1.17;;
70270;SDS011;57680;54.292;18.598;2023-03-05T03:09:28;3.38;;;0.75;;
70270;SDS011;57680;54.292;18.598;2023-03-05T03:11:54;5.60;;;1.47;;
70270;SDS011;57680;54.292;18.598;2023-03-05T03:14:20;4.60;;;1.10;;
70270;SDS011;57680;54.292;18.598;2023-03-05T03:16:45;3.30;;;1.00;;
70270;SDS011;57680;54.292;18.598;2023-03-05T03:19:11;5.00;;;1.00;;
70270;SDS011;57680;54.292;18.598;2023-03-05T03:21:37;4.80;;;1.00;;
70270;SDS011;57680;54.292;18.598;2023-03-05T03:24:02;3.15;;;0.93;;
70270;SDS011;57680;54.292;18.598;2023-03-05T03:26:29;5.97;;;1.07;;
70270;SDS011;57680;54.292;18.598;2023-03-05T03:28:55;2.92;;;0.80;;
70270;SDS011;57680;54.292;18.598;2023-03-05T03:31:20;3.77;;;1.13;;
70270;SDS011;57680;54.292;18.598;2023-03-05T03:33:46;3.47;;;1.00;;
70270;SDS011;57680;54.292;18.598;2023-03-05T03:36:11;3.53;;;1.15;;
70270;SDS011;57680;54.292;18.598;2023-03-05T03:38:37;4.38;;;1.05;;
70270;SDS011;57680;54.292;18.598;2023-03-05T03:41:04;3.92;;;1.40;;
70270;SDS011;57680;54.292;18.598;2023-03-05T03:43:31;3.97;;;1.17;;
70270;SDS011;57680;54.292;18.598;2023-03-05T03:45:56;5.82;;;1.00;;
70270;SDS011;57680;54.292;18.598;2023-03-05T03:48:22;2.90;;;0.80;;
70270;SDS011;57680;54.292;18.598;2023-03-05T03:50:47;4.87;;;1.10;;
70270;SDS011;57680;54.292;18.598;2023-03-05T03:53:13;3.65;;;1.23;;
70270;SDS011;57680;54.292;18.598;2023-03-05T03:55:39;2.77;;;0.83;;
70270;SDS011;57680;54.292;18.598;2023-03-05T03:58:05;3.03;;;1.00;;
70270;SDS011;57680;54.292;18.598;2023-03-05T04:03:27;7.00;;;1.20;;
70270;SDS011;57680;54.292;18.598;2023-03-05T04:05:53;2.95;;;0.75;;
70270;SDS011;57680;54.292;18.598;2023-03-05T04:08:18;2.17;;;0.60;;
70270;SDS011;57680;54.292;18.598;2023-03-05T04:10:44;4.73;;;1.00;;
70270;SDS011;57680;54.292;18.598;2023-03-05T04:13:09;7.97;;;1.13;;
70270;SDS011;57680;54.292;18.598;2023-03-05T04:15:34;5.37;;;1.10;;
70270;SDS011;57680;54.292;18.598;2023-03-05T04:18:00;4.23;;;1.00;;
70270;SDS011;57680;54.292;18.598;2023-03-05T04:20:25;3.78;;;0.90;;
70270;SDS011;57680;54.292;18.598;2023-03-05T04:22:51;5.37;;;1.30;;
70270;SDS011;57680;54.292;18.598;2023-03-05T04:25:16;3.23;;;1.00;;
70270;SDS011;57680;54.292;18.598;2023-03-05T04:27:42;3.90;;;1.00;;
70270;SDS011;57680;54.292;18.598;2023-03-05T04:30:08;4.90;;;1.20;;
70270;SDS011;57680;54.292;18.598;2023-03-05T04:32:35;5.60;;;1.03;;
70270;SDS011;57680;54.292;18.598;2023-03-05T04:35:01;3.88;;;1.20;;
70270;SDS011;57680;54.292;18.598;2023-03-05T04:37:26;3.93;;;1.20;;
70270;SDS011;57680;54.292;18.598;2023-03-05T04:39:52;7.20;;;1.07;;
70270;SDS011;57680;54.292;18.598;2023-03-05T04:42:17;4.80;;;1.20;;
70270;SDS011;57680;54.292;18.598;2023-03-05T04:44:43;5.25;;;1.10;;
70270;SDS011;57680;54.292;18.598;2023-03-05T04:47:09;4.60;;;1.20;;
70270;SDS011;57680;54.292;18.598;2023-03-05T04:49:34;4.50;;;1.23;;
70270;SDS011;57680;54.292;18.598;2023-03-05T04:51:59;4.10;;;1.30;;
70270;SDS011;57680;54.292;18.598;2023-03-05T04:54:25;5.87;;;1.50;;
70270;SDS011;57680;54.292;18.598;2023-03-05T04:56:50;5.77;;;1.10;;
70270;SDS011;57680;54.292;18.598;2023-03-05T04:59:15;4.23;;;1.37;;
70270;SDS011;57680;54.292;18.598;2023-03-05T05:01:41;5.20;;;1.33;;
70270;SDS011;57680;54.292;18.598;2023-03-05T05:04:06;6.03;;;1.35;;
70270;SDS011;57680;54.292;18.598;2023-03-05T05:06:32;3.67;;;0.95;;
70270;SDS011;57680;54.292;18.598;2023-03-05T05:08:57;4.80;;;1.10;;
70270;SDS011;57680;54.292;18.598;2023-03-05T05:11:22;6.83;;;1.30;;
70270;SDS011;57680;54.292;18.598;2023-03-05T05:13:48;5.43;;;1.33;;
70270;SDS011;57680;54.292;18.598;2023-03-05T05:16:13;5.50;;;1.30;;
70270;SDS011;57680;54.292;18.598;2023-03-05T05:18:39;4.97;;;1.00;;
70270;SDS011;57680;54.292;18.598;2023-03-05T05:21:08;5.80;;;1.47;;
70270;SDS011;57680;54.292;18.598;2023-03-05T05:23:34;4.03;;;1.10;;
70270;SDS011;57680;54.292;18.598;2023-03-05T05:26:01;4.30;;;1.20;;
70270;SDS011;57680;54.292;18.598;2023-03-05T05:28:28;3.83;;;1.38;;
70270;SDS011;57680;54.292;18.598;2023-03-05T05:30:53;7.15;;;1.58;;
70270;SDS011;57680;54.292;18.598;2023-03-05T05:33:20;4.17;;;1.10;;
70270;SDS011;57680;54.292;18.598;2023-03-05T05:35:45;4.13;;;1.10;;
70270;SDS011;57680;54.292;18.598;2023-03-05T05:38:11;7.67;;;1.50;;
70270;SDS011;57680;54.292;18.598;2023-03-05T05:40:36;5.00;;;1.20;;
70270;SDS011;57680;54.292;18.598;2023-03-05T05:43:02;5.50;;;1.03;;
70270;SDS011;57680;54.292;18.598;2023-03-05T05:45:27;6.03;;;1.53;;
70270;SDS011;57680;54.292;18.598;2023-03-05T05:47:53;7.07;;;1.23;;
70270;SDS011;57680;54.292;18.598;2023-03-05T05:50:19;4.28;;;1.30;;
70270;SDS011;57680;54.292;18.598;2023-03-05T05:52:44;4.00;;;1.10;;
70270;SDS011;57680;54.292;18.598;2023-03-05T05:55:10;3.83;;;1.33;;
70270;SDS011;57680;54.292;18.598;2023-03-05T05:57:36;5.03;;;1.20;;
70270;SDS011;57680;54.292;18.598;2023-03-05T06:00:02;4.20;;;1.43;;
70270;SDS011;57680;54.292;18.598;2023-03-05T06:02:31;7.45;;;1.52;;
70270;SDS011;57680;54.292;18.598;2023-03-05T06:04:57;4.77;;;1.23;;
70270;SDS011;57680;54.292;18.598;2023-03-05T06:07:22;7.63;;;1.52;;
70270;SDS011;57680;54.292;18.598;2023-03-05T06:09:49;5.57;;;1.73;;
70270;SDS011;57680;54.292;18.598;2023-03-05T06:12:14;7.30;;;1.40;;
70270;SDS011;57680;54.292;18.598;2023-03-05T06:14:40;4.83;;;1.30;;
70270;SDS011;57680;54.292;18.598;2023-03-05T06:17:05;4.30;;;1.20;;
70270;SDS011;57680;54.292;18.598;2023-03-05T06:19:31;5.17;;;1.33;;
70270;SDS011;57680;54.292;18.598;2023-03-05T06:21:56;7.20;;;1.35;;
70270;SDS011;57680;54.292;18.598;2023-03-05T06:24:22;3.57;;;1.30;;
70270;SDS011;57680;54.292;18.598;2023-03-05T06:26:47;4.47;;;1.30;;
70270;SDS011;57680;54.292;18.598;2023-03-05T06:29:13;4.13;;;1.50;;
70270;SDS011;57680;54.292;18.598;2023-03-05T06:31:39;7.93;;;1.80;;
70270;SDS011;57680;54.292;18.598;2023-03-05T06:34:05;6.30;;;1.70;;
70270;SDS011;57680;54.292;18.598;2023-03-05T06:36:30;3.70;;;1.10;;
70270;SDS011;57680;54.292;18.598;2023-03-05T06:38:56;7.27;;;1.37;;
70270;SDS011;57680;54.292;18.598;2023-03-05T06:41:24;5.68;;;1.40;;
70270;SDS011;57680;54.292;18.598;2023-03-05T06:43:51;6.38;;;1.10;;
70270;SDS011;57680;54.292;18.598;2023-03-05T06:46:24;5.78;;;1.10;;
70270;SDS011;57680;54.292;18.598;2023-03-05T06:48:53;3.77;;;1.10;;
70270;SDS011;57680;54.292;18.598;2023-03-05T06:51:24;4.55;;;1.00;;
70270;SDS011;57680;54.292;18.598;2023-03-05T06:54:01;5.40;;;1.30;;
70270;SDS011;57680;54.292;18.598;2023-03-05T06:56:31;4.43;;;1.10;;
70270;SDS011;57680;54.292;18.598;2023-03-05T06:58:58;3.47;;;0.90;;
70270;SDS011;57680;54.292;18.598;2023-03-05T07:01:24;4.97;;;1.20;;
70270;SDS011;57680;54.292;18.598;2023-03-05T07:03:50;4.77;;;1.10;;
70270;SDS011;57680;54.292;18.598;2023-03-05T07:06:17;4.68;;;0.82;;
70270;SDS011;57680;54.292;18.598;2023-03-05T07:08:43;3.65;;;0.90;;
70270;SDS011;57680;54.292;18.598;2023-03-05T07:11:10;5.35;;;1.30;;
70270;SDS011;57680;54.292;18.598;2023-03-05T07:13:37;4.27;;;1.03;;
70270;SDS011;57680;54.292;18.598;2023-03-05T07:16:06;3.50;;;1.27;;
70270;SDS011;57680;54.292;18.598;2023-03-05T07:18:33;7.30;;;1.27;;
70270;SDS011;57680;54.292;18.598;2023-03-05T07:21:05;6.00;;;1.20;;
70270;SDS011;57680;54.292;18.598;2023-03-05T07:23:32;5.07;;;1.52;;
70270;SDS011;57680;54.292;18.598;2023-03-05T07:26:05;5.38;;;1.10;;
70270;SDS011;57680;54.292;18.598;2023-03-05T07:28:31;5.35;;;1.02;;
70270;SDS011;57680;54.292;18.598;2023-03-05T07:31:01;4.18;;;1.17;;
70270;SDS011;57680;54.292;18.598;2023-03-05T07:33:29;5.27;;;0.90;;
70270;SDS011;57680;54.292;18.598;2023-03-05T07:35:55;3.78;;;1.08;;
70270;SDS011;57680;54.292;18.598;2023-03-05T07:38:20;3.60;;;1.03;;
70270;SDS011;57680;54.292;18.598;2023-03-05T07:40:46;4.53;;;1.10;;
70270;SDS011;57680;54.292;18.598;2023-03-05T07:43:11;3.67;;;0.60;;
70270;SDS011;57680;54.292;18.598;2023-03-05T07:45:41;3.58;;;0.88;;
70270;SDS011;57680;54.292;18.598;2023-03-05T07:48:08;4.23;;;0.80;;
70270;SDS011;57680;54.292;18.598;2023-03-05T07:50:37;3.75;;;1.08;;
70270;SDS011;57680;54.292;18.598;2023-03-05T07:53:03;2.30;;;0.83;;
70270;SDS011;57680;54.292;18.598;2023-03-05T07:55:28;3.47;;;0.90;;
70270;SDS011;57680;54.292;18.598;2023-03-05T07:57:54;6.93;;;1.03;;
70270;SDS011;57680;54.292;18.598;2023-03-05T08:00:19;4.83;;;1.03;;
70270;SDS011;57680;54.292;18.598;2023-03-05T08:02:45;4.17;;;1.03;;
70270;SDS011;57680;54.292;18.598;2023-03-05T08:05:10;3.80;;;1.10;;
70270;SDS011;57680;54.292;18.598;2023-03-05T08:07:36;3.50;;;1.03;;
70270;SDS011;57680;54.292;18.598;2023-03-05T08:10:01;4.78;;;1.30;;
70270;SDS011;57680;54.292;18.598;2023-03-05T08:12:28;4.77;;;1.10;;
70270;SDS011;57680;54.292;18.598;2023-03-05T08:14:53;2.95;;;0.70;;
70270;SDS011;57680;54.292;18.598;2023-03-05T08:17:18;5.30;;;1.47;;
70270;SDS011;57680;54.292;18.598;2023-03-05T08:19:44;7.13;;;1.23;;
70270;SDS011;57680;54.292;18.598;2023-03-05T08:22:09;4.87;;;1.00;;
70270;SDS011;57680;54.292;18.598;2023-03-05T08:24:35;9.13;;;0.90;;
70270;SDS011;57680;54.292;18.598;2023-03-05T08:27:00;3.53;;;1.07;;
70270;SDS011;57680;54.292;18.598;2023-03-05T08:29:26;3.70;;;1.00;;
70270;SDS011;57680;54.292;18.598;2023-03-05T08:31:51;5.47;;;0.90;;
70270;SDS011;57680;54.292;18.598;2023-03-05T08:34:17;6.50;;;1.30;;
70270;SDS011;57680;54.292;18.598;2023-03-05T08:36:46;4.78;;;0.90;;
70270;SDS011;57680;54.292;18.598;2023-03-05T08:39:11;2.95;;;0.95;;
70270;SDS011;57680;54.292;18.598;2023-03-05T08:41:37;4.33;;;0.77;;
70270;SDS011;57680;54.292;18.598;2023-03-05T08:44:03;4.27;;;1.00;;
70270;SDS011;57680;54.292;18.598;2023-03-05T08:46:28;2.78;;;0.60;;
70270;SDS011;57680;54.292;18.598;2023-03-05T08:48:54;1.80;;;0.50;;
70270;SDS011;57680;54.292;18.598;2023-03-05T08:51:21;2.35;;;0.60;;
70270;SDS011;57680;54.292;18.598;2023-03-05T08:53:48;3.08;;;0.80;;
70270;SDS011;57680;54.292;18.598;2023-03-05T08:56:13;3.80;;;0.77;;
70270;SDS011;57680;54.292;18.598;2023-03-05T08:58:39;2.40;;;0.80;;
70270;SDS011;57680;54.292;18.598;2023-03-05T09:01:06;2.42;;;0.57;;
70270;SDS011;57680;54.292;18.598;2023-03-05T09:03:32;2.30;;;0.73;;
70270;SDS011;57680;54.292;18.598;2023-03-05T09:06:02;3.30;;;0.65;;
70270;SDS011;57680;54.292;18.598;2023-03-05T09:08:29;4.27;;;0.70;;
70270;SDS011;57680;54.292;18.598;2023-03-05T09:10:55;3.85;;;1.00;;
70270;SDS011;57680;54.292;18.598;2023-03-05T09:13:20;2.83;;;0.57;;
70270;SDS011;57680;54.292;18.598;2023-03-05T09:15:52;2.47;;;0.80;;
70270;SDS011;57680;54.292;18.598;2023-03-05T09:18:25;3.37;;;1.10;;
70270;SDS011;57680;54.292;18.598;2023-03-05T09:20:50;2.13;;;0.52;;
70270;SDS011;57680;54.292;18.598;2023-03-05T09:23:16;2.57;;;0.60;;
70270;SDS011;57680;54.292;18.598;2023-03-05T09:25:42;3.25;;;0.60;;
70270;SDS011;57680;54.292;18.598;2023-03-05T09:28:07;4.50;;;0.80;;
70270;SDS011;57680;54.292;18.598;2023-03-05T09:30:33;3.03;;;0.80;;
70270;SDS011;57680;54.292;18.598;2023-03-05T09:32:59;2.05;;;0.40;;
70270;SDS011;57680;54.292;18.598;2023-03-05T09:35:25;1.95;;;0.60;;
70270;SDS011;57680;54.292;18.598;2023-03-05T09:37:50;1.37;;;0.57;;
70270;SDS011;57680;54.292;18.598;2023-03-05T09:40:16;2.83;;;0.70;;
70270;SDS011;57680;54.292;18.598;2023-03-05T09:46:17;2.25;;;0.70;;
70270;SDS011;57680;54.292;18.598;2023-03-05T09:51:24;2.42;;;0.63;;
70270;SDS011;57680;54.292;18.598;2023-03-05T09:54:05;1.90;;;0.40;;
70270;SDS011;57680;54.292;18.598;2023-03-05T09:56:41;1.58;;;0.40;;
70270;SDS011;57680;54.292;18.598;2023-03-05T10:01:52;1.38;;;0.40;;
70270;SDS011;57680;54.292;18.598;2023-03-05T10:04:25;1.30;;;0.57;;
70270;SDS011;57680;54.292;18.598;2023-03-05T10:07:07;2.57;;;0.50;;
70270;SDS011;57680;54.292;18.598;2023-03-05T10:12:24;2.60;;;0.68;;
70270;SDS011;57680;54.292;18.598;2023-03-05T10:14:54;2.15;;;1.00;;
70270;SDS011;57680;54.292;18.598;2023-03-05T10:17:32;2.57;;;0.63;;
70270;SDS011;57680;54.292;18.598;2023-03-05T10:20:06;2.05;;;0.70;;
70270;SDS011;57680;54.292;18.598;2023-03-05T10:28:08;1.77;;;0.70;;
70270;SDS011;57680;54.292;18.598;2023-03-05T10:30:51;2.67;;;0.50;;
70270;SDS011;57680;54.292;18.598;2023-03-05T10:36:11;1.45;;;0.45;;
70270;SDS011;57680;54.292;18.598;2023-03-05T10:50:00;1.65;;;0.65;;
70270;SDS011;57680;54.292;18.598;2023-03-05T10:54:55;1.53;;;0.50;;
70270;SDS011;57680;54.292;18.598;2023-03-05T10:57:21;2.90;;;0.60;;
70270;SDS011;57680;54.292;18.598;2023-03-05T10:59:50;1.50;;;0.55;;
70270;SDS011;57680;54.292;18.598;2023-03-05T11:02:18;1.93;;;0.50;;
70270;SDS011;57680;54.292;18.598;2023-03-05T11:04:45;2.58;;;0.38;;
70270;SDS011;57680;54.292;18.598;2023-03-05T11:09:39;3.63;;;1.10;;
70270;SDS011;57680;54.292;18.598;2023-03-05T11:14:41;2.95;;;0.70;;
70270;SDS011;57680;54.292;18.598;2023-03-05T11:17:26;2.70;;;0.63;;
70270;SDS011;57680;54.292;18.598;2023-03-05T11:19:55;4.70;;;0.90;;
70270;SDS011;57680;54.292;18.598;2023-03-05T11:22:22;2.65;;;0.70;;
70270;SDS011;57680;54.292;18.598;2023-03-05T11:25:12;2.90;;;1.07;;
70270;SDS011;57680;54.292;18.598;2023-03-05T11:27:49;3.20;;;0.90;;
70270;SDS011;57680;54.292;18.598;2023-03-05T11:30:26;1.35;;;0.50;;
70270;SDS011;57680;54.292;18.598;2023-03-05T11:33:39;3.15;;;0.85;;
70270;SDS011;57680;54.292;18.598;2023-03-05T11:35:47;3.47;;;0.88;;
70270;SDS011;57680;54.292;18.598;2023-03-05T11:38:24;6.57;;;1.30;;
70270;SDS011;57680;54.292;18.598;2023-03-05T11:40:51;3.33;;;0.60;;
70270;SDS011;57680;54.292;18.598;2023-03-05T11:43:20;2.60;;;0.60;;
70270;SDS011;57680;54.292;18.598;2023-03-05T11:45:48;2.05;;;0.60;;
70270;SDS011;57680;54.292;18.598;2023-03-05T11:48:24;3.20;;;0.50;;
70270;SDS011;57680;54.292;18.598;2023-03-05T11:50:53;1.47;;;0.50;;
70270;SDS011;57680;54.292;18.598;2023-03-05T11:53:30;1.65;;;0.55;;
70270;SDS011;57680;54.292;18.598;2023-03-05T11:55:58;0.70;;;0.43;;
70270;SDS011;57680;54.292;18.598;2023-03-05T11:58:44;1.05;;;0.50;;
70270;SDS011;57680;54.292;18.598;2023-03-05T12:01:15;2.17;;;0.70;;
70270;SDS011;57680;54.292;18.598;2023-03-05T12:03:43;2.60;;;0.57;;
70270;SDS011;57680;54.292;18.598;2023-03-05T12:14:55;2.10;;;0.60;;
70270;SDS011;57680;54.292;18.598;2023-03-05T12:17:41;1.83;;;0.40;;
70270;SDS011;57680;54.292;18.598;2023-03-05T12:20:38;2.45;;;0.65;;
70270;SDS011;57680;54.292;18.598;2023-03-05T12:23:26;2.17;;;0.55;;
70270;SDS011;57680;54.292;18.598;2023-03-05T12:25:53;1.70;;;0.50;;
70270;SDS011;57680;54.292;18.598;2023-03-05T12:31:01;0.90;;;0.50;;
70270;SDS011;57680;54.292;18.598;2023-03-05T12:33:40;2.45;;;0.60;;
70270;SDS011;57680;54.292;18.598;2023-03-05T12:38:49;2.67;;;0.67;;
70270;SDS011;57680;54.292;18.598;2023-03-05T12:44:08;2.80;;;0.82;;
70270;SDS011;57680;54.292;18.598;2023-03-05T12:46:33;1.02;;;0.45;;
70270;SDS011;57680;54.292;18.598;2023-03-05T12:51:45;2.87;;;0.70;;
70270;SDS011;57680;54.292;18.598;2023-03-05T12:54:28;1.58;;;0.70;;
70270;SDS011;57680;54.292;18.598;2023-03-05T12:56:59;3.53;;;0.40;;
70270;SDS011;57680;54.292;18.598;2023-03-05T12:59:28;1.20;;;0.50;;
70270;SDS011;57680;54.292;18.598;2023-03-05T13:02:02;4.20;;;0.60;;
70270;SDS011;57680;54.292;18.598;2023-03-05T13:04:34;3.13;;;0.60;;
70270;SDS011;57680;54.292;18.598;2023-03-05T13:07:11;0.90;;;0.63;;
70270;SDS011;57680;54.292;18.598;2023-03-05T13:09:39;1.77;;;0.50;;
70270;SDS011;57680;54.292;18.598;2023-03-05T13:12:09;1.67;;;0.60;;
70270;SDS011;57680;54.292;18.598;2023-03-05T13:14:43;2.85;;;0.80;;
70270;SDS011;57680;54.292;18.598;2023-03-05T13:17:24;3.83;;;0.50;;
70270;SDS011;57680;54.292;18.598;2023-03-05T13:19:52;1.10;;;0.40;;
70270;SDS011;57680;54.292;18.598;2023-03-05T13:22:17;2.50;;;0.73;;
70270;SDS011;57680;54.292;18.598;2023-03-05T13:24:43;1.63;;;0.43;;
70270;SDS011;57680;54.292;18.598;2023-03-05T13:27:27;2.42;;;0.60;;
70270;SDS011;57680;54.292;18.598;2023-03-05T13:29:55;1.00;;;0.40;;
70270;SDS011;57680;54.292;18.598;2023-03-05T13:32:31;1.40;;;0.57;;
70270;SDS011;57680;54.292;18.598;2023-03-05T13:34:58;2.07;;;0.50;;
70270;SDS011;57680;54.292;18.598;2023-03-05T13:37:32;1.52;;;0.45;;
70270;SDS011;57680;54.292;18.598;2023-03-05T13:40:02;2.53;;;0.80;;
70270;SDS011;57680;54.292;18.598;2023-03-05T13:42:39;2.70;;;0.80;;
70270;SDS011;57680;54.292;18.598;2023-03-05T13:45:15;7.57;;;0.80;;
70270;SDS011;57680;54.292;18.598;2023-03-05T13:47:54;3.20;;;0.87;;
70270;SDS011;57680;54.292;18.598;2023-03-05T13:50:26;1.85;;;0.88;;
70270;SDS011;57680;54.292;18.598;2023-03-05T13:53:16;1.67;;;0.52;;
70270;SDS011;57680;54.292;18.598;2023-03-05T13:55:52;4.15;;;0.73;;
70270;SDS011;57680;54.292;18.598;2023-03-05T14:06:30;3.58;;;0.68;;
70270;SDS011;57680;54.292;18.598;2023-03-05T14:09:06;5.10;;;0.47;;
70270;SDS011;57680;54.292;18.598;2023-03-05T14:11:41;1.58;;;0.60;;
70270;SDS011;57680;54.292;18.598;2023-03-05T14:14:14;1.40;;;0.73;;
70270;SDS011;57680;54.292;18.598;2023-03-05T14:16:41;2.25;;;0.50;;
70270;SDS011;57680;54.292;18.598;2023-03-05T14:19:23;2.83;;;0.80;;
70270;SDS011;57680;54.292;18.598;2023-03-05T14:21:56;2.23;;;0.57;;
70270;SDS011;57680;54.292;18.598;2023-03-05T14:24:22;1.83;;;0.50;;
70270;SDS011;57680;54.292;18.598;2023-03-05T14:26:50;2.83;;;0.60;;
70270;SDS011;57680;54.292;18.598;2023-03-05T14:29:18;2.13;;;0.40;;
70270;SDS011;57680;54.292;18.598;2023-03-05T14:31:51;2.28;;;0.50;;
70270;SDS011;57680;54.292;18.598;2023-03-05T14:34:24;3.95;;;0.95;;
70270;SDS011;57680;54.292;18.598;2023-03-05T14:36:52;2.72;;;0.60;;
70270;SDS011;57680;54.292;18.598;2023-03-05T14:39:31;1.90;;;0.70;;
70270;SDS011;57680;54.292;18.598;2023-03-05T14:44:59;2.95;;;0.40;;
70270;SDS011;57680;54.292;18.598;2023-03-05T14:47:34;1.13;;;0.40;;
70270;SDS011;57680;54.292;18.598;2023-03-05T14:49:59;1.97;;;0.50;;
70270;SDS011;57680;54.292;18.598;2023-03-05T14:52:25;1.13;;;0.40;;
70270;SDS011;57680;54.292;18.598;2023-03-05T14:54:51;2.10;;;0.43;;
70270;SDS011;57680;54.292;18.598;2023-03-05T14:57:19;2.50;;;0.40;;
70270;SDS011;57680;54.292;18.598;2023-03-05T14:59:47;1.83;;;0.57;;
70270;SDS011;57680;54.292;18.598;2023-03-05T15:02:13;1.87;;;0.50;;
70270;SDS011;57680;54.292;18.598;2023-03-05T15:04:44;1.30;;;0.60;;
70270;SDS011;57680;54.292;18.598;2023-03-05T15:07:17;1.58;;;0.70;;
70270;SDS011;57680;54.292;18.598;2023-03-05T15:09:49;2.17;;;0.55;;
70270;SDS011;57680;54.292;18.598;2023-03-05T15:12:14;1.93;;;0.70;;
70270;SDS011;57680;54.292;18.598;2023-03-05T15:14:41;1.23;;;0.65;;
70270;SDS011;57680;54.292;18.598;2023-03-05T15:17:09;2.10;;;0.67;;
70270;SDS011;57680;54.292;18.598;2023-03-05T15:19:40;1.88;;;0.40;;
70270;SDS011;57680;54.292;18.598;2023-03-05T15:22:05;2.13;;;0.70;;
70270;SDS011;57680;54.292;18.598;2023-03-05T15:24:31;2.53;;;0.70;;
70270;SDS011;57680;54.292;18.598;2023-03-05T15:26:56;3.97;;;0.80;;
70270;SDS011;57680;54.292;18.598;2023-03-05T15:29:22;1.67;;;0.57;;
70270;SDS011;57680;54.292;18.598;2023-03-05T15:31:47;1.77;;;0.43;;
70270;SDS011;57680;54.292;18.598;2023-03-05T15:34:17;2.73;;;1.00;;
70270;SDS011;57680;54.292;18.598;2023-03-05T15:36:43;2.17;;;0.68;;
70270;SDS011;57680;54.292;18.598;2023-03-05T15:39:08;3.03;;;0.60;;
70270;SDS011;57680;54.292;18.598;2023-03-05T15:41:33;2.73;;;0.70;;
70270;SDS011;57680;54.292;18.598;2023-03-05T15:43:59;2.97;;;0.67;;
70270;SDS011;57680;54.292;18.598;2023-03-05T15:46:24;2.05;;;0.57;;
70270;SDS011;57680;54.292;18.598;2023-03-05T15:48:50;1.67;;;0.50;;
70270;SDS011;57680;54.292;18.598;2023-03-05T15:51:16;3.43;;;0.90;;
70270;SDS011;57680;54.292;18.598;2023-03-05T15:53:42;2.55;;;0.85;;
70270;SDS011;57680;54.292;18.598;2023-03-05T15:56:09;2.67;;;0.87;;